Time;durP1;ratioP1;P1;durP2;ratioP2;P2;SDS_P1;SDS_P2;PMS_P1;PMS_P2;Temp;Humidity;BMP_temperature;BMP_pressure;BME280_temperature;BME280_humidity;BME280_pressure;Samples;Min_cycle;Max_cycle;Signal;HPM_P1;HPM_P2
2022/06/20 05:36:12;;;;;;;10.85;4.20;;;13.50;99.90;;;;;;5155893;27;20499;-75
2022/06/20 05:38:52;;;;;;;12.63;4.85;;;;;;;;;;5140481;27;20389;-74
2022/06/20 05:41:18;;;;;;;12.20;4.38;;;;;;;;;;5123728;27;20452;-75
2022/06/20 05:43:44;;;;;;;12.00;4.43;;;;;;;;;;5124422;28;20422;-76
2022/06/20 05:46:13;;;;;;;13.18;4.90;;;;;;;;;;5119611;28;20510;-77
2022/06/20 05:48:43;;;;;;;10.15;4.30;;;;;;;;;;5106598;28;20986;-76
2022/06/20 05:51:09;;;;;;;11.13;4.72;;;;;;;;;;5119582;28;20456;-76
2022/06/20 05:53:38;;;;;;;13.88;4.70;;;;;;;;;;5127652;27;20480;-76
2022/06/20 06:04:19;;;;;;;12.27;4.40;;;;;;;;;;5151214;27;20397;-76
2022/06/20 06:06:48;;;;;;;13.63;4.75;;;;;;;;;;5111131;28;20413;-75
2022/06/20 06:09:14;;;;;;;12.55;4.68;;;;;;;;;;5103730;28;20588;-74
2022/06/20 06:11:54;;;;;;;14.98;5.00;;;14.70;99.90;;;;;;5101331;28;20469;-75
2022/06/20 06:14:29;;;;;;;14.43;4.40;;;;;;;;;;5105953;28;20478;-76
2022/06/20 06:16:55;;;;;;;10.70;4.35;;;;;;;;;;5101590;28;20508;-75
2022/06/20 06:19:34;;;;;;;11.98;4.55;;;;;;;;;;5088138;28;20449;-74
2022/06/20 06:23:41;;;;;;;12.68;3.97;;;;;;;;;;5102068;27;20374;-74
2022/06/20 06:26:08;;;;;;;8.98;3.53;;;;;;;;;;5086357;28;20434;-75
2022/06/20 06:28:34;;;;;;;12.93;3.97;;;;;;;;;;5080982;28;20502;-75
2022/06/20 06:31:06;;;;;;;8.60;3.55;;;;;;;;;;5095166;28;20426;-75
2022/06/20 06:33:45;;;;;;;9.57;3.40;;;;;;;;;;5070330;28;20399;-74
2022/06/20 06:36:15;;;;;;;9.75;3.58;;;;;;;;;;5086218;28;20417;-74
2022/06/20 06:38:45;;;;;;;12.73;4.18;;;;;;;;;;5086645;28;20480;-74
2022/06/20 06:41:37;;;;;;;11.88;3.90;;;15.30;99.90;;;;;;5085649;28;20417;-75
2022/06/20 06:44:13;;;;;;;12.27;3.78;;;15.20;99.90;;;;;;5082034;28;20419;-75
2022/06/20 06:46:41;;;;;;;10.97;4.17;;;15.10;99.90;;;;;;5062565;28;20432;-75
2022/06/20 06:49:12;;;;;;;12.10;3.75;;;;;;;;;;5075937;28;20463;-75
2022/06/20 06:52:00;;;;;;;12.47;3.70;;;14.90;99.90;;;;;;5079352;28;20853;-75
2022/06/20 06:54:26;;;;;;;9.90;3.30;;;;;;;;;;5075594;28;20420;-75
2022/06/20 06:57:01;;;;;;;9.27;3.60;;;;;;;;;;5071866;28;20483;-75
2022/06/20 06:59:42;;;;;;;10.90;3.47;;;15.20;99.90;;;;;;5079862;28;20918;-75
2022/06/20 07:02:22;;;;;;;8.82;2.97;;;15.30;99.90;;;;;;5082009;28;20510;-75
2022/06/20 07:04:51;;;;;;;9.43;3.60;;;;;;;;;;5077798;28;20415;-75
2022/06/20 07:07:20;;;;;;;10.07;3.60;;;;;;;;;;5061560;28;20418;-75
2022/06/20 07:09:51;;;;;;;13.30;3.85;;;15.50;99.90;;;;;;5076022;28;20423;-75
2022/06/20 07:12:17;;;;;;;8.88;3.50;;;;;;;;;;5060826;28;20419;-75
2022/06/20 07:14:46;;;;;;;10.45;3.70;;;15.60;99.90;;;;;;5059416;28;20464;-75
2022/06/20 07:17:22;;;;;;;11.93;3.55;;;;;;;;;;5064585;28;20414;-75
2022/06/20 07:19:50;;;;;;;9.90;3.87;;;;;;;;;;5080617;28;20434;-73
2022/06/20 07:22:17;;;;;;;11.30;3.53;;;;;;;;;;5089671;28;20433;-74
2022/06/20 07:24:45;;;;;;;14.00;4.05;;;15.90;99.90;;;;;;5103036;28;20429;-73
2022/06/20 07:27:18;;;;;;;11.20;3.70;;;;;;;;;;5099870;28;20418;-73
2022/06/20 07:29:53;;;;;;;11.00;3.17;;;15.70;99.90;;;;;;5098471;28;20429;-73
2022/06/20 07:32:29;;;;;;;11.77;3.40;;;16.20;99.90;;;;;;5096692;28;20931;-74
2022/06/20 07:34:59;;;;;;;11.00;3.30;;;16.40;99.90;;;;;;5064250;28;20437;-74
2022/06/20 07:37:39;;;;;;;8.82;3.25;;;16.40;99.90;;;;;;5086953;28;20418;-74
2022/06/20 07:40:05;;;;;;;9.65;2.97;;;;;;;;;;5070686;28;20430;-73
2022/06/20 07:42:40;;;;;;;11.60;3.30;;;;;;;;;;5084780;28;20427;-74
2022/06/20 07:45:25;;;;;;;9.38;2.80;;;16.30;99.90;;;;;;5083352;28;20414;-74
2022/06/20 07:47:51;;;;;;;12.03;3.20;;;;;;;;;;5085364;28;20890;-74
2022/06/20 07:50:42;;;;;;;9.77;3.20;;;16.30;99.90;;;;;;5070620;28;20886;-74
2022/06/20 07:53:15;;;;;;;10.60;2.70;;;16.40;99.90;;;;;;5080594;28;20426;-74
2022/06/20 07:55:46;;;;;;;9.15;2.45;;;16.70;99.90;;;;;;5086159;28;20422;-74
2022/06/20 07:58:17;;;;;;;8.52;2.65;;;16.90;99.90;;;;;;5082716;28;20467;-73
2022/06/20 08:00:54;;;;;;;6.78;2.30;;;16.80;99.90;;;;;;5086347;28;20422;-73
2022/06/20 08:03:26;;;;;;;8.57;2.10;;;;;;;;;;5083336;28;20517;-76
2022/06/20 08:05:59;;;;;;;7.30;2.20;;;16.70;99.90;;;;;;5084300;28;20515;-74
2022/06/20 08:08:37;;;;;;;7.77;1.93;;;16.70;99.90;;;;;;5088768;28;20414;-74
2022/06/20 08:11:08;;;;;;;7.80;2.17;;;16.50;99.90;;;;;;5085129;28;20425;-74
2022/06/20 08:13:37;;;;;;;7.22;2.50;;;;;;;;;;5064047;28;21089;-73
2022/06/20 08:16:15;;;;;;;8.33;2.37;;;16.40;99.90;;;;;;5084535;28;20441;-73
2022/06/20 08:18:41;;;;;;;6.78;2.13;;;;;;;;;;5086000;28;20431;-73
2022/06/20 08:21:14;;;;;;;5.50;1.77;;;16.50;99.90;;;;;;5085787;28;20450;-73
2022/06/20 08:23:47;;;;;;;5.93;2.10;;;16.70;99.90;;;;;;5067635;28;20428;-74
2022/06/20 08:26:23;;;;;;;4.45;1.80;;;16.60;99.90;;;;;;5085500;28;20425;-73
2022/06/20 08:28:58;;;;;;;6.13;2.13;;;16.60;99.90;;;;;;5085269;28;20468;-73
2022/06/20 08:31:33;;;;;;;4.73;1.90;;;16.60;99.90;;;;;;5081887;28;20418;-73
2022/06/20 08:34:20;;;;;;;4.57;2.00;;;16.70;99.90;;;;;;5076451;28;20417;-74
2022/06/20 08:36:57;;;;;;;6.50;2.30;;;;;;;;;;5084290;28;20875;-74
2022/06/20 08:39:28;;;;;;;5.47;2.05;;;;;;;;;;5069189;28;20464;-74
2022/06/20 08:41:57;;;;;;;6.50;2.15;;;;;;;;;;5085191;28;21614;-74
2022/06/20 08:44:36;;;;;;;6.47;2.15;;;17.00;99.90;;;;;;5077748;28;20480;-73
2022/06/20 08:47:37;;;;;;;5.73;1.90;;;17.00;99.90;;;;;;5083055;28;20762;-73
2022/06/20 08:50:25;;;;;;;5.13;2.17;;;17.20;99.90;;;;;;5081806;28;20819;-73
2022/06/20 08:53:12;;;;;;;6.23;2.40;;;17.90;99.90;;;;;;5064125;28;20440;-74
2022/06/20 08:55:41;;;;;;;7.05;2.38;;;17.30;99.90;;;;;;5083750;28;20428;-73
2022/06/20 08:58:12;;;;;;;5.23;2.07;;;17.20;99.90;;;;;;5085316;28;20426;-73
2022/06/20 09:01:02;;;;;;;6.57;2.20;;;17.20;99.90;;;;;;5069287;28;20437;-71
2022/06/20 09:03:30;;;;;;;5.25;1.92;;;17.10;99.90;;;;;;5078815;28;20429;-72
2022/06/20 09:06:07;;;;;;;7.15;2.25;;;17.30;99.90;;;;;;5085271;28;20426;-72
2022/06/20 09:08:33;;;;;;;7.28;2.00;;;;;;;;;;5083866;28;20418;-71
2022/06/20 09:11:18;;;;;;;5.30;2.10;;;17.80;99.90;;;;;;5070394;28;20445;-71
2022/06/20 09:14:10;;;;;;;5.53;1.90;;;17.60;99.90;;;;;;5077017;28;20423;-72
2022/06/20 09:17:01;;;;;;;6.40;2.22;;;17.50;99.90;;;;;;5051583;28;20528;-72
2022/06/20 09:19:45;;;;;;;7.55;2.38;;;17.70;99.90;;;;;;5083365;28;20476;-73
2022/06/20 09:22:29;;;;;;;6.95;2.25;;;17.60;99.90;;;;;;5078521;28;21059;-73
2022/06/20 09:25:01;;;;;;;7.70;2.35;;;17.50;99.90;;;;;;5064945;28;20518;-73
2022/06/20 09:27:33;;;;;;;9.88;2.20;;;;;;;;;;5068042;28;20581;-73
2022/06/20 09:30:18;;;;;;;7.13;2.70;;;17.40;99.90;;;;;;5069225;28;20423;-72
2022/06/20 09:33:23;;;;;;;6.97;2.10;;;17.70;99.90;;;;;;5062730;28;20562;-73
2022/06/20 09:36:21;;;;;;;7.97;2.20;;;17.60;99.90;;;;;;5080128;28;20426;-73
2022/06/20 09:39:08;;;;;;;7.82;2.58;;;17.80;99.90;;;;;;5085265;28;20509;-74
2022/06/20 09:41:36;;;;;;;9.77;2.53;;;17.50;99.90;;;;;;5063228;28;20458;-72
2022/06/20 09:44:10;;;;;;;8.27;2.20;;;17.30;99.90;;;;;;5067599;28;20477;-73
2022/06/20 09:46:51;;;;;;;8.45;2.40;;;17.30;99.90;;;;;;5070318;28;20471;-74
2022/06/20 09:49:44;;;;;;;6.90;2.15;;;17.10;99.90;;;;;;5066319;28;20752;-73
2022/06/20 09:52:31;;;;;;;8.15;2.25;;;17.00;99.90;;;;;;5078259;28;20422;-74
2022/06/20 09:55:29;;;;;;;6.63;2.28;;;17.20;99.90;;;;;;5083326;28;20486;-74
2022/06/20 09:58:25;;;;;;;5.60;2.20;;;17.40;99.90;;;;;;5079265;28;20443;-74
2022/06/20 10:01:05;;;;;;;4.80;1.97;;;17.70;99.90;;;;;;5082178;28;20811;-73
2022/06/20 10:03:50;;;;;;;5.20;1.92;;;17.70;99.90;;;;;;5063289;28;20428;-73
2022/06/20 10:06:26;;;;;;;4.82;1.70;;;17.80;99.90;;;;;;5084235;28;20417;-73
2022/06/20 10:09:14;;;;;;;5.77;1.97;;;17.90;99.90;;;;;;5076867;28;20583;-72
2022/06/20 10:12:01;;;;;;;7.47;2.15;;;18.50;99.90;;;;;;5083360;28;20860;-73
2022/06/20 10:14:49;;;;;;;8.68;2.70;;;18.20;99.90;;;;;;5082841;28;20418;-72
2022/06/20 10:17:21;;;;;;;7.90;2.10;;;17.90;99.90;;;;;;5083199;28;20770;-74
2022/06/20 10:20:05;;;;;;;8.95;2.20;;;17.60;99.90;;;;;;5100083;28;20473;-73
2022/06/20 10:22:52;;;;;;;7.43;2.08;;;17.40;99.90;;;;;;5076958;28;20467;-73
2022/06/20 10:25:20;;;;;;;6.93;2.50;;;17.50;99.90;;;;;;5077708;28;20920;-74
2022/06/20 10:28:16;;;;;;;5.57;2.20;;;18.10;99.90;;;;;;5064921;28;20822;-73
2022/06/20 10:30:54;;;;;;;5.05;1.98;;;18.40;99.90;;;;;;5079769;28;20418;-74
2022/06/20 10:33:40;;;;;;;6.90;2.30;;;18.50;99.90;;;;;;5079707;28;21040;-73
2022/06/20 10:36:36;;;;;;;5.18;1.90;;;18.00;99.90;;;;;;5061105;28;20435;-73
2022/06/20 10:39:09;;;;;;;6.72;1.83;;;18.00;99.90;;;;;;5079154;28;20475;-74
2022/06/20 10:41:40;;;;;;;4.32;1.80;;;18.30;99.90;;;;;;5088942;28;20424;-73
2022/06/20 10:44:19;;;;;;;5.55;1.98;;;18.00;99.90;;;;;;5088406;28;20557;-73
2022/06/20 10:47:06;;;;;;;4.25;1.60;;;18.00;99.90;;;;;;5084987;28;20429;-73
2022/06/20 10:50:06;;;;;;;8.15;2.10;;;18.40;99.90;;;;;;5070951;28;20489;-73
2022/06/20 10:52:37;;;;;;;6.60;2.33;;;;;;;;;;5039101;28;20418;-73
2022/06/20 10:55:25;;;;;;;4.85;2.00;;;18.40;99.90;;;;;;5083349;28;20421;-73
2022/06/20 10:58:11;;;;;;;6.43;2.40;;;18.80;99.90;;;;;;5081047;28;20881;-73
2022/06/20 11:00:45;;;;;;;7.07;2.00;;;18.20;99.90;;;;;;5069377;28;20484;-74
2022/06/20 11:03:38;;;;;;;6.82;2.25;;;18.30;99.90;;;;;;5082824;28;20429;-74
2022/06/20 11:06:12;;;;;;;6.32;2.42;;;;;;;;;;5078268;28;21169;-74
2022/06/20 11:08:38;;;;;;;5.72;2.20;;;18.50;99.90;;;;;;5081398;28;20505;-73
2022/06/20 11:11:12;;;;;;;6.78;2.22;;;18.50;99.90;;;;;;5083676;28;20770;-73
2022/06/20 11:13:51;;;;;;;6.10;2.30;;;18.50;99.90;;;;;;5064359;28;20925;-73
2022/06/20 11:16:38;;;;;;;6.23;2.20;;;18.70;99.90;;;;;;5084919;28;20921;-74
2022/06/20 11:19:32;;;;;;;12.00;2.42;;;18.50;99.90;;;;;;5084320;28;20473;-74
2022/06/20 11:22:16;;;;;;;8.15;2.30;;;18.30;99.90;;;;;;5080662;28;20434;-74
2022/06/20 11:25:09;;;;;;;6.00;2.60;;;18.20;99.90;;;;;;5084995;28;20978;-74
2022/06/20 11:28:16;;;;;;;6.63;2.53;;;17.90;99.90;;;;;;5086953;28;20420;-74
2022/06/20 11:30:54;;;;;;;7.10;2.70;;;;;;;;;;5059457;28;20506;-75
2022/06/20 11:34:01;;;;;;;7.90;2.65;;;17.70;99.90;;;;;;5082034;28;20425;-74
2022/06/20 11:37:04;;;;;;;5.88;2.20;;;18.00;99.90;;;;;;5085245;28;20421;-78
2022/06/20 11:39:56;;;;;;;7.75;2.42;;;18.40;99.90;;;;;;5065266;28;20469;-79
2022/06/20 11:42:24;;;;;;;5.88;2.03;;;18.50;99.90;;;;;;5086476;28;20501;-79
2022/06/20 11:45:17;;;;;;;4.88;2.03;;;18.60;99.90;;;;;;5070136;28;20424;-79
2022/06/20 11:47:48;;;;;;;4.10;2.10;;;18.80;99.90;;;;;;5060183;28;20434;-78
2022/06/20 11:50:26;;;;;;;4.35;2.22;;;19.10;99.90;;;;;;5064287;28;20896;-79
2022/06/20 11:52:58;;;;;;;4.90;1.83;;;19.20;99.90;;;;;;5089277;28;20773;-78
2022/06/20 11:55:54;;;;;;;3.95;1.65;;;19.20;99.90;;;;;;5085205;28;20433;-79
2022/06/20 11:58:47;;;;;;;4.67;1.90;;;19.40;99.90;;;;;;5061813;28;20431;-80
2022/06/20 12:01:41;;;;;;;5.80;2.33;;;18.90;99.90;;;;;;5046538;28;20849;-80
2022/06/20 12:04:22;;;;;;;6.72;2.60;;;18.40;99.90;;;;;;5087289;28;20987;-78
2022/06/20 12:07:03;;;;;;;5.18;2.45;;;18.40;99.90;;;;;;5083176;28;20456;-81
2022/06/20 12:09:38;;;;;;;8.43;2.42;;;18.10;99.90;;;;;;5086493;28;20426;-80
2022/06/20 12:12:36;;;;;;;6.40;2.53;;;17.70;99.90;;;;;;5081957;28;20457;-81
2022/06/20 12:15:34;;;;;;;8.95;2.70;;;17.50;99.90;;;;;;5066635;28;20921;-81
2022/06/20 12:18:39;;;;;;;8.00;2.63;;;17.60;99.90;;;;;;5000974;28;20418;-80
2022/06/20 12:24:06;;;;;;;7.47;2.50;;;18.40;99.90;;;;;;5085198;28;20425;-81
2022/06/20 12:26:39;;;;;;;4.97;2.10;;;18.80;99.90;;;;;;5082047;28;20428;-81
2022/06/20 12:29:14;;;;;;;5.38;2.10;;;18.70;99.90;;;;;;5064859;28;20446;-80
2022/06/20 12:31:44;;;;;;;5.25;2.10;;;18.40;99.90;;;;;;5079753;28;20424;-80
2022/06/20 12:34:36;;;;;;;6.82;2.40;;;18.40;99.90;;;;;;5068754;28;20430;-80
2022/06/20 12:37:04;;;;;;;8.90;2.22;;;18.10;99.90;;;;;;5069606;28;20774;-80
2022/06/20 12:39:36;;;;;;;6.37;2.43;;;18.20;99.90;;;;;;5067699;28;20763;-80
2022/06/20 12:42:23;;;;;;;4.85;2.25;;;18.10;99.90;;;;;;5080795;28;20427;-80
2022/06/20 12:44:56;;;;;;;5.03;2.00;;;17.90;99.90;;;;;;5065434;28;20422;-81
2022/06/20 12:47:50;;;;;;;4.65;2.10;;;18.10;99.90;;;;;;5069293;28;20417;-80
2022/06/20 12:50:27;;;;;;;6.35;2.28;;;18.40;99.90;;;;;;5083824;28;20418;-80
2022/06/20 12:53:21;;;;;;;10.15;2.47;;;18.70;99.90;;;;;;5083594;28;20813;-80
2022/06/20 12:55:59;;;;;;;6.22;2.20;;;;;;;;;;5083539;28;20433;-80
2022/06/20 12:58:54;;;;;;;4.80;1.90;;;18.70;99.90;;;;;;5084072;28;20507;-80
2022/06/20 13:01:37;;;;;;;3.95;2.00;;;18.80;99.90;;;;;;5062885;28;20426;-80
2022/06/20 13:04:22;;;;;;;6.23;2.03;;;18.00;99.90;;;;;;5079918;28;20475;-78
2022/06/20 13:07:15;;;;;;;5.20;2.13;;;17.90;99.90;;;;;;5067522;28;20418;-78
2022/06/20 13:10:01;;;;;;;5.47;2.47;;;17.90;99.90;;;;;;5080475;28;20925;-78
2022/06/20 13:12:35;;;;;;;5.13;2.10;;;18.00;99.90;;;;;;5079557;28;20509;-78
2022/06/20 13:15:28;;;;;;;8.30;2.35;;;18.20;99.90;;;;;;5098631;28;20478;-78
2022/06/20 13:18:26;;;;;;;7.53;2.67;;;18.70;99.90;;;;;;5067913;28;20437;-78
2022/06/20 13:21:02;;;;;;;4.67;2.17;;;19.30;99.90;;;;;;5076563;28;20758;-79
2022/06/20 13:24:10;;;;;;;6.32;2.30;;;19.00;99.90;;;;;;5075586;28;20457;-79
2022/06/20 13:27:00;;;;;;;4.85;2.05;;;18.70;99.90;;;;;;5048265;28;20422;-78
2022/06/20 13:29:53;;;;;;;4.93;2.10;;;18.10;99.90;;;;;;5067721;28;22139;-78
2022/06/20 13:32:32;;;;;;;4.75;2.10;;;18.60;99.90;;;;;;5076022;28;20422;-79
2022/06/20 13:35:12;;;;;;;5.43;2.10;;;18.50;99.90;;;;;;5075380;28;20425;-78
2022/06/20 13:37:51;;;;;;;5.40;2.20;;;18.60;99.90;;;;;;5060837;28;20424;-78
2022/06/20 13:40:42;;;;;;;5.40;2.10;;;19.10;99.90;;;;;;5075351;28;20418;-78
2022/06/20 13:43:20;;;;;;;5.85;2.30;;;18.80;99.90;;;;;;5053161;28;20437;-78
2022/06/20 13:46:00;;;;;;;6.18;2.28;;;19.20;99.90;;;;;;5062019;28;20425;-78
2022/06/20 13:48:34;;;;;;;5.82;2.17;;;19.00;99.90;;;;;;5078308;28;20420;-78
2022/06/20 13:51:36;;;;;;;4.78;2.20;;;18.50;99.90;;;;;;5079437;28;20431;-78
2022/06/20 13:54:06;;;;;;;5.40;2.25;;;18.20;99.90;;;;;;5042714;28;20442;-79
2022/06/20 13:56:52;;;;;;;5.90;2.35;;;18.40;99.90;;;;;;5079058;28;20445;-78
2022/06/20 13:59:50;;;;;;;8.15;2.40;;;18.60;99.90;;;;;;5076228;28;20413;-78
2022/06/20 14:02:36;;;;;;;6.07;2.43;;;18.80;99.90;;;;;;5087633;28;20507;-79
2022/06/20 14:05:28;;;;;;;5.53;2.22;;;18.40;99.90;;;;;;5089182;28;20917;-79
2022/06/20 14:08:05;;;;;;;5.95;2.08;;;18.50;99.90;;;;;;5065908;28;20540;-79
2022/06/20 14:10:36;;;;;;;6.32;2.28;;;18.50;99.90;;;;;;5089256;28;20393;-78
2022/06/20 14:13:07;;;;;;;4.90;2.00;;;19.00;99.90;;;;;;5084465;28;20410;-79
2022/06/20 14:15:36;;;;;;;5.65;1.92;;;19.10;99.90;;;;;;5071306;28;20761;-79
2022/06/20 14:18:14;;;;;;;4.95;1.85;;;19.20;99.90;;;;;;5063800;28;20867;-79
2022/06/20 14:21:01;;;;;;;5.25;2.03;;;19.50;99.90;;;;;;5063567;28;20422;-78
2022/06/20 14:23:28;;;;;;;5.60;2.00;;;19.50;99.90;;;;;;5078140;28;20463;-79
2022/06/20 14:25:57;;;;;;;6.72;1.85;;;19.60;99.90;;;;;;5060431;28;20754;-78
2022/06/20 14:28:28;;;;;;;3.95;1.75;;;19.20;99.90;;;;;;5081424;28;20887;-78
2022/06/20 14:31:01;;;;;;;4.93;1.92;;;20.00;99.90;;;;;;5079475;28;20414;-78
2022/06/20 14:33:44;;;;;;;5.82;2.10;;;19.60;99.90;;;;;;5081691;28;20486;-78
2022/06/20 14:36:36;;;;;;;5.82;2.08;;;20.20;99.90;;;;;;5078969;28;20909;-78
2022/06/20 14:39:17;;;;;;;6.68;2.20;;;20.50;99.90;;;;;;5059645;28;21053;-77
2022/06/20 14:42:07;;;;;;;4.55;2.10;;;20.60;99.90;;;;;;5079714;28;20487;-78
2022/06/20 14:44:57;;;;;;;6.57;2.20;;;20.30;99.90;;;;;;5080020;28;20535;-77
2022/06/20 14:47:32;;;;;;;6.78;2.38;;;20.30;99.90;;;;;;5080596;28;20422;-77
2022/06/20 14:50:42;;;;;;;6.78;2.10;;;20.30;99.90;;;;;;5077782;28;20910;-77
2022/06/20 14:53:29;;;;;;;4.67;2.00;;;19.80;99.90;;;;;;5050394;28;21055;-77
2022/06/20 14:56:19;;;;;;;5.13;2.10;;;19.50;99.90;;;;;;5081568;28;20431;-78
2022/06/20 14:59:01;;;;;;;7.15;2.25;;;19.50;99.90;;;;;;5085538;28;20511;-78
2022/06/20 15:01:48;;;;;;;4.13;1.85;;;19.30;99.90;;;;;;5083596;28;20433;-78
2022/06/20 15:04:27;;;;;;;3.93;1.80;;;19.00;99.90;;;;;;5083057;28;20427;-78
2022/06/20 15:07:20;;;;;;;4.75;1.90;;;19.40;99.90;;;;;;5068909;28;20433;-79
2022/06/20 15:10:01;;;;;;;4.93;2.00;;;19.90;99.90;;;;;;5088731;28;20418;-78
2022/06/20 15:12:46;;;;;;;4.50;1.80;;;20.30;99.90;;;;;;5078565;28;20470;-78
2022/06/20 15:15:27;;;;;;;4.97;2.00;;;20.90;99.90;;;;;;5087733;28;20410;-78
2022/06/20 15:18:27;;;;;;;4.53;1.73;;;21.40;99.90;;;;;;5080759;28;20422;-77
2022/06/20 15:21:25;;;;;;;5.78;2.42;;;21.60;99.90;;;;;;5077337;28;20436;-78
2022/06/20 15:24:33;;;;;;;6.38;2.40;;;21.00;99.90;;;;;;5074292;28;20423;-78
2022/06/20 15:27:03;;;;;;;7.80;2.72;;;19.40;99.90;;;;;;5067751;28;20433;-78
2022/06/20 15:29:53;;;;;;;6.80;2.28;;;19.20;99.90;;;;;;5062791;28;20526;-78
2022/06/20 15:32:41;;;;;;;9.37;2.50;;;19.40;99.90;;;;;;5075639;28;20419;-78
2022/06/20 15:38:20;;;;;;;7.35;3.10;;;20.70;99.90;;;;;;5085965;28;20434;-78
2022/06/20 15:40:59;;;;;;;9.05;3.30;;;20.80;99.90;;;;;;5066783;28;20432;-78
2022/06/20 15:43:36;;;;;;;7.00;2.40;;;20.60;99.90;;;;;;5082079;28;20459;-78
2022/06/20 15:46:10;;;;;;;6.22;2.67;;;21.10;99.90;;;;;;5083185;28;20996;-78
2022/06/20 15:48:48;;;;;;;5.93;2.38;;;21.20;99.90;;;;;;5079282;28;20503;-78
2022/06/20 15:51:36;;;;;;;8.10;2.60;;;21.20;99.90;;;;;;5087019;28;20518;-78
2022/06/20 15:54:19;;;;;;;8.02;2.63;;;21.00;99.90;;;;;;5082194;28;20425;-78
2022/06/20 15:56:57;;;;;;;6.90;2.30;;;20.70;99.90;;;;;;5083190;28;20506;-77
2022/06/20 15:59:48;;;;;;;8.00;2.53;;;21.20;99.90;;;;;;5081944;28;20769;-78
2022/06/20 16:02:20;;;;;;;5.50;2.22;;;21.40;99.90;;;;;;5074420;28;20824;-78
2022/06/20 16:05:06;;;;;;;5.75;2.17;;;21.90;99.90;;;;;;5080306;28;20955;-78
2022/06/20 16:08:02;;;;;;;6.45;2.58;;;22.10;99.90;;;;;;5078555;28;20414;-79
2022/06/20 16:10:40;;;;;;;7.35;2.72;;;19.80;99.90;;;;;;5058374;28;20433;-79
2022/06/20 16:13:12;;;;;;;8.93;2.83;;;19.40;99.90;;;;;;5077806;28;20833;-80
2022/06/20 16:15:40;;;;;;;7.40;2.75;;;19.90;99.90;;;;;;5062323;28;20515;-80
2022/06/20 16:18:17;;;;;;;8.65;2.92;;;19.60;99.90;;;;;;5070436;28;20502;-79
2022/06/20 16:21:12;;;;;;;7.38;3.28;;;19.40;99.90;;;;;;5078763;28;20418;-79
2022/06/20 16:23:55;;;;;;;8.90;2.78;;;19.10;99.90;;;;;;5080265;28;20418;-79
2022/06/20 16:26:32;;;;;;;9.38;3.08;;;19.20;99.90;;;;;;5082247;28;20418;-79
2022/06/20 16:29:07;;;;;;;7.00;2.55;;;19.50;99.90;;;;;;5078872;28;20422;-79
2022/06/20 16:31:54;;;;;;;9.20;2.93;;;20.20;99.90;;;;;;5066382;28;20517;-80
2022/06/20 16:34:32;;;;;;;7.07;2.75;;;20.80;99.90;;;;;;5079066;28;20474;-80
2022/06/20 16:37:12;;;;;;;7.18;2.38;;;21.30;99.90;;;;;;5081717;28;20438;-79
2022/06/20 16:39:40;;;;;;;5.78;2.15;;;21.00;99.90;;;;;;5082745;28;20879;-79
2022/06/20 16:42:24;;;;;;;8.27;2.70;;;21.10;99.90;;;;;;5081072;28;20424;-79
2022/06/20 16:45:16;;;;;;;7.05;2.28;;;21.40;99.90;;;;;;5081280;28;20824;-79
2022/06/20 16:48:26;;;;;;;7.05;2.25;;;21.30;99.90;;;;;;5080610;28;20457;-79
2022/06/20 16:51:24;;;;;;;8.45;2.20;;;20.00;99.90;;;;;;5078358;28;21011;-79
2022/06/20 16:54:09;;;;;;;6.50;2.50;;;;;;;;;;5062169;28;20430;-79
2022/06/20 16:56:38;;;;;;;5.20;2.00;;;;;;;;;;5082952;28;20566;-77
2022/06/20 16:59:04;;;;;;;8.80;2.20;;;;;;;;;;5082559;28;20458;-77
2022/06/20 17:01:48;;;;;;;8.27;2.40;;;;;;;;;;5077911;28;20475;-77
2022/06/20 17:04:20;;;;;;;7.38;2.30;;;18.90;99.90;;;;;;5080610;28;20429;-77
2022/06/20 17:06:53;;;;;;;6.57;2.10;;;18.80;99.90;;;;;;5079158;28;20415;-77
2022/06/20 17:09:21;;;;;;;6.15;2.28;;;;;;;;;;5066630;28;20428;-77
2022/06/20 17:12:01;;;;;;;8.15;2.17;;;;;;;;;;5074650;28;20836;-77
2022/06/20 17:14:38;;;;;;;7.32;2.10;;;19.80;99.90;;;;;;5078591;28;20452;-78
2022/06/20 17:17:23;;;;;;;5.05;1.88;;;20.40;99.90;;;;;;5081111;28;20448;-78
2022/06/20 17:20:20;;;;;;;5.95;1.67;;;21.30;99.90;;;;;;5083470;28;20499;-78
2022/06/20 17:23:02;;;;;;;6.15;1.90;;;21.70;99.90;;;;;;5076187;28;20442;-78
2022/06/20 17:25:36;;;;;;;5.70;2.00;;;20.10;99.90;;;;;;5080732;28;20485;-77
2022/06/20 17:28:17;;;;;;;6.60;2.00;;;;;;;;;;5086981;28;20898;-77
2022/06/20 17:31:07;;;;;;;7.57;2.00;;;19.50;99.90;;;;;;5084279;28;20455;-77
2022/06/20 17:33:49;;;;;;;6.18;1.70;;;20.30;99.90;;;;;;5079859;28;20428;-77
2022/06/20 17:36:41;;;;;;;3.75;1.50;;;20.00;99.90;;;;;;5063945;28;20474;-77
2022/06/20 17:39:28;;;;;;;4.32;1.40;;;19.70;99.90;;;;;;5079528;28;20454;-77
2022/06/20 17:42:18;;;;;;;5.15;1.55;;;19.10;99.90;;;;;;5083123;28;20927;-77
2022/06/20 17:45:07;;;;;;;5.73;1.70;;;19.30;99.90;;;;;;5075200;28;20477;-77
2022/06/20 17:47:32;;;;;;;4.40;1.40;;;19.40;99.90;;;;;;5083401;28;20409;-78
2022/06/20 17:50:19;;;;;;;8.17;1.83;;;19.70;99.90;;;;;;5077854;28;20781;-78
2022/06/20 17:53:14;;;;;;;4.80;1.70;;;20.10;99.90;;;;;;5087951;28;20418;-77
2022/06/20 17:55:51;;;;;;;8.40;1.50;;;20.60;99.90;;;;;;5082588;28;20431;-77
2022/06/20 17:58:53;;;;;;;5.47;1.80;;;21.50;99.90;;;;;;5070542;28;20517;-77
2022/06/20 18:01:37;;;;;;;6.00;1.70;;;22.30;99.90;;;;;;5081581;28;20853;-79
2022/06/20 18:04:12;;;;;;;5.80;1.33;;;22.70;99.90;;;;;;5063103;28;20487;-79
2022/06/20 18:06:41;;;;;;;6.35;1.40;;;22.20;99.90;;;;;;5059706;28;20425;-79
2022/06/20 18:09:20;;;;;;;6.80;1.45;;;22.40;99.90;;;;;;5057842;28;20463;-79
2022/06/20 18:11:50;;;;;;;5.65;1.40;;;22.40;99.90;;;;;;5056282;28;20448;-80
2022/06/20 18:14:26;;;;;;;5.85;1.60;;;22.60;99.90;;;;;;5070641;28;20419;-79
2022/06/20 18:17:02;;;;;;;6.50;1.67;;;22.40;99.90;;;;;;5071424;28;20433;-80
2022/06/20 18:20:07;;;;;;;4.80;1.70;;;22.50;99.90;;;;;;5080161;28;20481;-80
2022/06/20 18:22:53;;;;;;;6.38;1.77;;;22.30;99.90;;;;;;5010726;28;20504;-79
2022/06/20 18:25:32;;;;;;;5.97;1.73;;;22.20;99.90;;;;;;5027831;28;20429;-79
2022/06/20 18:28:01;;;;;;;4.22;1.40;;;21.40;99.90;;;;;;5055831;28;20983;-79
2022/06/20 18:30:34;;;;;;;5.65;1.38;;;20.40;99.90;;;;;;5092023;28;20421;-80
2022/06/20 18:33:02;;;;;;;4.47;1.30;;;20.40;99.90;;;;;;5077188;28;20488;-79
2022/06/20 18:35:28;;;;;;;5.75;1.65;;;20.40;99.90;;;;;;5065470;28;20513;-79
2022/06/20 18:38:09;;;;;;;3.97;1.50;;;20.20;99.90;;;;;;5063922;28;20425;-79
2022/06/20 18:40:44;;;;;;;5.65;1.30;;;19.60;99.90;;;;;;5075641;28;20742;-79
2022/06/20 18:43:17;;;;;;;4.72;1.30;;;19.60;99.90;;;;;;5079990;28;20490;-79
2022/06/20 18:45:45;;;;;;;5.10;1.50;;;19.50;99.90;;;;;;5081885;28;20417;-79
2022/06/20 18:48:11;;;;;;;5.00;1.40;;;;;;;;;;5082722;28;20422;-79
2022/06/20 18:50:44;;;;;;;5.25;1.48;;;19.70;99.90;;;;;;5081406;28;20418;-79
2022/06/20 18:53:25;;;;;;;7.97;1.70;;;19.70;99.90;;;;;;5074507;28;20489;-79
2022/06/20 18:56:28;;;;;;;6.47;1.60;;;19.60;99.90;;;;;;5078077;28;20417;-80
2022/06/20 18:59:31;;;;;;;6.70;1.48;;;19.60;99.90;;;;;;5094008;28;20414;-79
2022/06/20 19:02:28;;;;;;;4.85;1.40;;;19.20;99.90;;;;;;5067052;28;20822;-79
2022/06/20 19:05:37;;;;;;;7.83;2.10;;;19.00;99.90;;;;;;5081029;28;21189;-79
2022/06/20 19:08:11;;;;;;;6.53;1.92;;;18.90;99.90;;;;;;5082382;28;20450;-80
2022/06/20 19:10:45;;;;;;;6.10;1.92;;;18.80;99.90;;;;;;5085390;28;20422;-79
2022/06/20 19:13:32;;;;;;;7.20;1.90;;;;;;;;;;5085941;28;20897;-79
2022/06/20 19:16:35;;;;;;;6.28;1.60;;;18.10;99.90;;;;;;5085473;28;20457;-79
2022/06/20 19:19:31;;;;;;;8.73;1.98;;;17.50;99.90;;;;;;5080605;28;20836;-78
2022/06/20 19:22:34;;;;;;;6.35;1.77;;;17.00;99.90;;;;;;5081793;28;20918;-78
2022/06/20 19:25:19;;;;;;;6.55;1.95;;;16.60;99.90;;;;;;5085117;28;21051;-78
2022/06/20 19:27:49;;;;;;;8.18;2.00;;;;;;;;;;5066436;28;20867;-78
2022/06/20 19:30:39;;;;;;;8.67;2.37;;;16.30;99.90;;;;;;5072921;28;20750;-78
2022/06/20 19:33:35;;;;;;;7.75;2.10;;;16.30;99.90;;;;;;5089295;28;20422;-79
2022/06/20 19:36:14;;;;;;;7.30;1.83;;;16.20;99.90;;;;;;5081250;28;20430;-78
2022/06/20 19:38:49;;;;;;;8.85;2.30;;;;;;;;;;5070550;28;20478;-79
2022/06/20 19:41:24;;;;;;;7.88;1.70;;;;;;;;;;5067112;28;20428;-78
2022/06/20 19:43:50;;;;;;;9.60;2.08;;;;;;;;;;5084703;28;20451;-77
2022/06/20 19:46:35;;;;;;;7.55;1.75;;;;;;;;;;5078217;28;20769;-74
2022/06/20 19:49:20;;;;;;;7.97;1.83;;;;;;;;;;5084324;28;20830;-74
2022/06/20 19:51:46;;;;;;;6.85;1.70;;;15.60;99.90;;;;;;5076330;28;20453;-74
2022/06/20 19:54:12;;;;;;;7.68;1.85;;;15.60;99.90;;;;;;5076044;28;20454;-74
2022/06/20 19:56:57;;;;;;;8.50;1.90;;;;;;;;;;5078764;28;20421;-74
2022/06/20 19:59:23;;;;;;;8.20;2.45;;;15.60;99.90;;;;;;5089131;28;20402;-74
2022/06/20 20:01:49;;;;;;;8.07;2.23;;;15.60;99.90;;;;;;5078969;28;20829;-74
2022/06/20 20:04:22;;;;;;;12.27;2.70;;;15.50;99.90;;;;;;5071356;28;20409;-74
2022/06/20 20:07:36;;;;;;;7.77;2.17;;;15.20;99.90;;;;;;5087134;28;20427;-73